Time;durP1;ratioP1;P1;durP2;ratioP2;P2;SDS_P1;SDS_P2;PMS_P1;PMS_P2;Temp;Humidity;BMP_temperature;BMP_pressure;BME280_temperature;BME280_humidity;BME280_pressure;Samples;Min_cycle;Max_cycle;Signal;HPM_P1;HPM_P2
2023/01/29 00:02:10;;;;;;;23.00;13.90;;;;;;;;;;5051594;28;20111;-61
2023/01/29 00:04:36;;;;;;;21.60;14.37;;;;;;;;;;5056883;28;20136;-60
2023/01/29 00:07:02;;;;;;;21.60;14.60;;;;;;;;;;5055462;28;20045;-61
2023/01/29 00:09:28;;;;;;;21.90;14.43;;;;;;;;;;5059813;28;20048;-61
2023/01/29 00:11:54;;;;;;;23.93;15.37;;;;;;;;;;5057603;28;20055;-61
2023/01/29 00:14:20;;;;;;;25.37;14.20;;;;;;;;;;5058026;28;20045;-62
2023/01/29 00:16:46;;;;;;;23.37;14.90;;;;;;;;;;5051865;28;20045;-60
2023/01/29 00:19:12;;;;;;;25.90;14.73;;;;;;;;;;5057170;28;20040;-60
2023/01/29 00:21:38;;;;;;;22.00;14.47;;;;;;;;;;5060570;28;20041;-61
2023/01/29 00:24:05;;;;;;;24.57;14.23;;;;;;;;;;5061608;28;20052;-61
2023/01/29 00:26:31;;;;;;;22.53;14.57;;;;;;;;;;5060145;28;20150;-62
2023/01/29 00:28:59;;;;;;;21.40;13.03;;;;;;;;;;5057261;28;20060;-61
2023/01/29 00:31:25;;;;;;;20.73;13.53;;;;;;;;;;5062717;28;20116;-60
2023/01/29 00:33:51;;;;;;;21.00;13.80;;;;;;;;;;5056089;28;20055;-61
2023/01/29 00:36:18;;;;;;;22.60;13.23;;;;;;;;;;5060514;28;20052;-61
2023/01/29 00:38:53;;;;;;;23.33;14.23;;;;;;;;;;5060274;28;20044;-61
2023/01/29 00:46:50;;;;;;;23.90;15.27;;;;;;;;;;5062412;28;20041;-60
2023/01/29 00:49:16;;;;;;;24.20;14.30;;;;;;;;;;5058071;28;20535;-60
2023/01/29 00:51:42;;;;;;;26.40;14.73;;;;;;;;;;5059323;28;20096;-60
2023/01/29 00:54:08;;;;;;;23.10;13.83;;;;;;;;;;5061828;28;20049;-60
2023/01/29 00:56:35;;;;;;;20.93;13.97;;;;;;;;;;5057468;28;20040;-60
2023/01/29 00:59:02;;;;;;;20.60;13.00;;;;;;;;;;5049702;28;20068;-60
2023/01/29 01:04:13;;;;;;;23.47;14.17;;;;;;;;;;5054161;28;20048;-62
2023/01/29 01:06:39;;;;;;;22.40;13.07;;;;;;;;;;5058389;28;20037;-61
2023/01/29 01:11:51;;;;;;;23.40;13.17;;;;;;;;;;5060508;28;20052;-62
2023/01/29 01:14:17;;;;;;;21.53;13.50;;;;;;;;;;5061581;28;20499;-61
2023/01/29 01:16:47;;;;;;;21.50;14.43;;;;;;;;;;5059570;28;20048;-61
2023/01/29 01:19:14;;;;;;;22.27;13.77;;;;;;;;;;5058652;28;20053;-63
2023/01/29 01:21:44;;;;;;;21.53;12.60;;;;;;;;;;5059676;28;20453;-60
2023/01/29 01:24:10;;;;;;;20.63;13.80;;;;;;;;;;5058587;28;20044;-60
2023/01/29 01:26:36;;;;;;;20.23;14.27;;;;;;;;;;5055019;28;20495;-60
2023/01/29 01:29:02;;;;;;;19.53;13.60;;;;;;;;;;5057223;28;20056;-61
2023/01/29 01:31:28;;;;;;;21.40;12.47;;;;;;;;;;5057123;28;20055;-61
2023/01/29 01:33:55;;;;;;;20.43;13.37;;;;;;;;;;5058700;28;20036;-60
2023/01/29 01:36:21;;;;;;;25.03;13.27;;;;;;;;;;5070681;28;20531;-60
2023/01/29 01:38:47;;;;;;;19.40;12.80;;;;;;;;;;5067365;28;20546;-60
2023/01/29 01:41:14;;;;;;;21.33;12.90;;;;;;;;;;5063874;28;20052;-60
2023/01/29 01:44:09;;;;;;;24.83;13.53;;;;;;;;;;5070684;28;20044;-60
2023/01/29 01:46:37;;;;;;;22.60;13.33;;;;;;;;;;5032372;28;20045;-61
2023/01/29 01:49:03;;;;;;;23.27;14.10;;;;;;;;;;5059218;28;20053;-60
2023/01/29 01:51:32;;;;;;;24.33;14.30;;;;;;;;;;5059641;28;20094;-60
2023/01/29 01:54:01;;;;;;;21.17;14.03;;;;;;;;;;5060701;28;20049;-61
2023/01/29 01:56:39;;;;;;;25.10;14.17;;;;;;;;;;5059517;28;20053;-61
2023/01/29 01:59:13;;;;;;;20.67;14.27;;;;;;;;;;5060924;28;20109;-60
2023/01/29 02:01:41;;;;;;;19.23;13.47;;;;;;;;;;5070291;28;20086;-60
2023/01/29 02:09:52;;;;;;;21.10;13.93;;;;;;;;;;5070367;28;20076;-60
2023/01/29 02:12:18;;;;;;;20.13;13.50;;;;;;;;;;5069818;28;20499;-60
2023/01/29 02:14:44;;;;;;;19.93;13.20;;;;;;;;;;5060424;28;20055;-60
2023/01/29 02:17:12;;;;;;;22.23;14.90;;;;;;;;;;5068281;28;20049;-60
2023/01/29 02:19:38;;;;;;;23.53;14.33;;;;;;;;;;5068478;28;20052;-61
2023/01/29 02:22:27;;;;;;;20.90;14.03;;;;;;;;;;5069905;28;20045;-60
2023/01/29 02:25:08;;;;;;;22.20;13.80;;;;;;;;;;5061006;28;20204;-60
2023/01/29 02:27:53;;;;;;;22.83;15.23;;;;;;;;;;5048246;28;20053;-60
2023/01/29 02:30:31;;;;;;;21.70;14.70;;;;;;;;;;5067133;28;20533;-60
2023/01/29 02:33:09;;;;;;;22.07;13.63;;;;;;;;;;5068465;28;20916;-60
2023/01/29 02:35:43;;;;;;;21.60;14.30;;;;;;;;;;5069714;28;20461;-60
2023/01/29 02:38:29;;;;;;;19.60;14.40;;;;;;;;;;5070035;28;20041;-60
2023/01/29 02:40:58;;;;;;;21.27;13.80;;;;;;;;;;5062859;28;20063;-60
2023/01/29 02:43:34;;;;;;;22.80;15.60;;;;;;;;;;5049547;28;20052;-60
2023/01/29 02:46:02;;;;;;;24.30;14.83;;;;;;;;;;5048403;28;20041;-59
2023/01/29 02:48:31;;;;;;;18.77;14.03;;;;;;;;;;5049760;28;20053;-60
2023/01/29 02:51:05;;;;;;;23.00;15.17;;;;;;;;;;5049339;28;20749;-61
2023/01/29 02:53:35;;;;;;;23.23;14.67;;;;;;;;;;5049717;28;20049;-60
2023/01/29 02:56:16;;;;;;;26.03;15.83;;;;;;;;;;5047944;28;20041;-60
2023/01/29 02:58:44;;;;;;;25.27;16.77;;;;;;;;;;5048987;28;20076;-60
2023/01/29 03:01:16;;;;;;;25.53;16.60;;;;;;;;;;5049345;28;20099;-60
2023/01/29 03:03:45;;;;;;;21.03;14.33;;;;;;;;;;5049288;28;20045;-60
2023/01/29 03:06:19;;;;;;;24.10;15.30;;;;;;;;;;5049677;28;20041;-60
2023/01/29 03:08:58;;;;;;;24.90;15.03;;;;;;;;;;5049030;28;20495;-60
2023/01/29 03:11:27;;;;;;;23.87;15.20;;;;;;;;;;5048211;28;20045;-60
2023/01/29 03:13:57;;;;;;;26.50;18.03;;;;;;;;;;5048815;28;20051;-60
2023/01/29 03:16:26;;;;;;;29.83;17.07;;;;;;;;;;5049295;28;20851;-60
2023/01/29 03:18:57;;;;;;;26.03;15.90;;;;;;;;;;5065747;28;20093;-60
2023/01/29 03:32:31;;;;;;;29.40;19.50;;;;;;;;;;5052135;28;20097;-60
2023/01/29 03:35:00;;;;;;;27.43;17.47;;;;;;;;;;5049060;28;20048;-60
2023/01/29 03:37:26;;;;;;;29.10;18.73;;;;;;;;;;5048585;28;20036;-60
2023/01/29 03:39:52;;;;;;;28.27;16.73;;;;;;;;;;5055222;28;20049;-60
2023/01/29 03:42:22;;;;;;;25.80;17.03;;;;;;;;;;5048649;28;20048;-60
2023/01/29 03:45:07;;;;;;;27.20;16.77;;;;;;;;;;5048591;28;20049;-60
2023/01/29 03:47:41;;;;;;;26.40;17.33;;;;;;;;;;5048939;28;20060;-60
2023/01/29 03:50:40;;;;;;;24.00;16.67;;;;;;;;;;5049721;28;20053;-60
2023/01/29 03:53:26;;;;;;;22.10;16.17;;;;;;;;;;5045848;28;20064;-60
2023/01/29 03:56:01;;;;;;;26.53;16.73;;;;;;;;;;5058754;28;20068;-61
2023/01/29 03:58:45;;;;;;;26.77;18.23;;;;;;;;;;5052812;28;20102;-60
2023/01/29 04:01:20;;;;;;;28.87;20.13;;;;;;;;;;5052409;28;20568;-60
2023/01/29 04:03:55;;;;;;;29.50;16.77;;;;;;;;;;5052502;28;20049;-60
2023/01/29 04:06:26;;;;;;;26.50;18.47;;;;;;;;;;5052297;28;20063;-61
2023/01/29 04:09:02;;;;;;;25.17;17.37;;;;;;;;;;5052911;28;20067;-60
2023/01/29 04:11:29;;;;;;;29.53;18.70;;;;;;;;;;5052610;28;20037;-60
2023/01/29 04:13:55;;;;;;;25.50;18.10;;;;;;;;;;5052781;28;20495;-60
2023/01/29 04:16:31;;;;;;;30.13;19.50;;;;;;;;;;5051903;28;20056;-60
2023/01/29 04:18:58;;;;;;;28.00;18.77;;;;;;;;;;5052004;28;20041;-60
2023/01/29 04:21:25;;;;;;;28.03;17.50;;;;;;;;;;5052310;28;20514;-60
2023/01/29 04:23:51;;;;;;;27.43;19.47;;;;;;;;;;5052164;28;20543;-60
2023/01/29 04:26:35;;;;;;;30.00;18.83;;;;;;;;;;5051698;28;20477;-60
2023/01/29 04:29:01;;;;;;;28.43;18.67;;;;;;;;;;5052003;28;20049;-60
2023/01/29 04:31:31;;;;;;;29.67;19.93;;;;;;;;;;5052876;28;20037;-60
2023/01/29 04:34:03;;;;;;;24.47;18.80;;;;;;;;;;5063709;28;20913;-60
2023/01/29 04:36:48;;;;;;;31.77;20.03;;;;;;;;;;5051822;28;20513;-60
2023/01/29 04:39:24;;;;;;;27.40;18.33;;;;;;;;;;5068887;28;20524;-60
2023/01/29 04:41:55;;;;;;;28.70;19.63;;;;;;;;;;5050782;28;20041;-60
2023/01/29 04:44:27;;;;;;;29.30;19.47;;;;;;;;;;5051090;28;20099;-60
2023/01/29 04:47:12;;;;;;;28.87;19.57;;;;;;;;;;5051479;28;20045;-60
2023/01/29 04:49:44;;;;;;;26.20;20.37;;;;;;;;;;5064673;28;20314;-60
2023/01/29 04:52:19;;;;;;;27.73;19.87;;;;;;;;;;5060462;28;20125;-60
2023/01/29 04:54:45;;;;;;;29.00;18.60;;;;;;;;;;5059605;28;20048;-60
2023/01/29 04:57:16;;;;;;;29.70;19.17;;;;;;;;;;5070169;28;20052;-60
2023/01/29 04:59:46;;;;;;;25.97;17.57;;;;;;;;;;5065230;28;20045;-60
2023/01/29 05:02:13;;;;;;;25.43;19.10;;;;;;;;;;5051435;28;20048;-60
2023/01/29 05:04:41;;;;;;;25.97;19.67;;;;;;;;;;5058075;28;20456;-60
2023/01/29 05:07:09;;;;;;;30.37;18.90;;;;;;;;;;5071348;28;20048;-60
2023/01/29 05:09:36;;;;;;;25.63;19.77;;;;;;;;;;5070472;28;20052;-60
2023/01/29 05:12:03;;;;;;;28.77;18.60;;;;;;;;;;5063737;28;20045;-60
2023/01/29 05:14:31;;;;;;;27.97;18.87;;;;;;;;;;5051530;28;20045;-60
2023/01/29 05:17:00;;;;;;;26.37;19.63;;;;;;;;;;5051188;28;20131;-62
2023/01/29 05:19:26;;;;;;;26.13;19.20;;;;;;;;;;5049894;28;20510;-61
2023/01/29 05:21:52;;;;;;;24.73;18.17;;;;;;;;;;5051476;28;20385;-60
2023/01/29 05:24:23;;;;;;;26.37;18.87;;;;;;;;;;5050972;28;20106;-60
2023/01/29 05:29:34;;;;;;;26.27;19.70;;;;;;;;;;5051120;28;20392;-60
2023/01/29 05:32:00;;;;;;;29.10;19.10;;;;;;;;;;5050554;28;20098;-60
2023/01/29 05:34:26;;;;;;;29.43;19.03;;;;;;;;;;5050833;28;20454;-60
2023/01/29 05:36:53;;;;;;;31.43;19.97;;;;;;;;;;5050660;28;20100;-60
2023/01/29 05:39:19;;;;;;;27.97;19.97;;;;;;;;;;5051294;28;20128;-60
2023/01/29 05:41:45;;;;;;;26.90;19.33;;;;;;;;;;5050604;28;20041;-60
2023/01/29 05:44:11;;;;;;;27.77;19.20;;;;;;;;;;5050399;28;20507;-60
2023/01/29 05:46:37;;;;;;;26.80;18.80;;;;;;;;;;5050505;28;20049;-60
2023/01/29 05:49:04;;;;;;;30.97;19.20;;;;;;;;;;5061709;28;20056;-60
2023/01/29 05:51:30;;;;;;;31.77;20.97;;;;;;;;;;5070177;28;20080;-60
2023/01/29 05:53:56;;;;;;;27.50;20.37;;;;;;;;;;5070279;28;20048;-60
2023/01/29 05:56:24;;;;;;;26.20;18.90;;;;;;;;;;5055075;28;20045;-60
2023/01/29 05:58:50;;;;;;;31.77;20.63;;;;;;;;;;5049498;28;20080;-60
2023/01/29 06:01:17;;;;;;;30.63;20.87;;;;;;;;;;5056202;28;20490;-60
2023/01/29 06:03:44;;;;;;;29.50;20.77;;;;;;;;;;5069685;28;20041;-60
2023/01/29 06:06:10;;;;;;;32.40;20.57;;;;;;;;;;5059565;28;20128;-60
2023/01/29 06:08:36;;;;;;;26.63;19.47;;;;;;;;;;5050336;28;20044;-60
2023/01/29 06:11:03;;;;;;;34.43;22.20;;;;;;;;;;5050215;28;20103;-60
2023/01/29 06:13:29;;;;;;;30.90;22.33;;;;;;;;;;5065086;28;20040;-60
2023/01/29 06:15:55;;;;;;;30.83;20.10;;;;;;;;;;5069485;28;20052;-60
2023/01/29 06:18:21;;;;;;;30.87;20.83;;;;;;;;;;5059617;28;20433;-60
2023/01/29 06:20:47;;;;;;;32.13;21.83;;;;;;;;;;5050201;28;20927;-60
2023/01/29 06:23:13;;;;;;;33.50;21.17;;;;;;;;;;5049741;28;20072;-60
2023/01/29 06:25:39;;;;;;;32.70;22.97;;;;;;;;;;5049811;28;20056;-60
2023/01/29 06:28:05;;;;;;;30.13;22.00;;;;;;;;;;5050014;28;20047;-60
2023/01/29 06:30:32;;;;;;;31.00;21.50;;;;;;;;;;5052889;28;20048;-61
2023/01/29 06:33:00;;;;;;;32.03;23.23;;;;;;;;;;5048327;28;20093;-60
2023/01/29 06:35:26;;;;;;;27.30;20.23;;;;;;;;;;5068089;28;20052;-60
2023/01/29 06:37:52;;;;;;;31.13;22.27;;;;;;;;;;5069359;28;20049;-60
2023/01/29 06:40:18;;;;;;;34.77;19.70;;;;;;;;;;5069319;28;20048;-60
2023/01/29 06:42:45;;;;;;;30.80;21.53;;;;;;;;;;5069377;28;20139;-60
2023/01/29 06:45:11;;;;;;;28.37;20.30;;;;;;;;;;5065885;28;20037;-60
2023/01/29 06:47:37;;;;;;;29.37;20.90;;;;;;;;;;5069217;28;20056;-60
2023/01/29 06:50:03;;;;;;;29.30;22.67;;;;;;;;;;5052062;28;20446;-60
2023/01/29 06:52:29;;;;;;;27.47;19.67;;;;;;;;;;5061008;28;20044;-60
2023/01/29 06:54:55;;;;;;;32.50;21.10;;;;;;;;;;5059545;28;20052;-60
2023/01/29 06:57:21;;;;;;;31.20;21.10;;;;;;;;;;5048835;28;20048;-60
2023/01/29 06:59:48;;;;;;;33.93;22.70;;;;;;;;;;5049521;28;20523;-60
2023/01/29 07:02:14;;;;;;;32.97;20.43;;;;;;;;;;5049153;28;20048;-60
2023/01/29 07:04:41;;;;;;;28.00;20.53;;;;;;;;;;5049455;28;20049;-60
2023/01/29 07:07:12;;;;;;;33.67;22.30;;;;;;;;;;5049134;28;20037;-61
2023/01/29 07:09:39;;;;;;;34.23;21.17;;;;;;;;;;5049509;28;20056;-60
2023/01/29 07:12:05;;;;;;;31.20;21.60;;;;;;;;;;5049170;28;20040;-60
2023/01/29 07:14:31;;;;;;;31.13;20.10;;;;;;;;;;5049934;28;20415;-61
2023/01/29 07:16:57;;;;;;;31.23;21.40;;;;;;;;;;5048551;28;20462;-61
2023/01/29 07:19:23;;;;;;;31.23;21.37;;;;;;;;;;5048517;28;20072;-61
2023/01/29 07:21:49;;;;;;;32.97;21.03;;;;;;;;;;5049065;28;20045;-61
2023/01/29 07:24:15;;;;;;;31.33;19.80;;;;;;;;;;5048676;28;20324;-61
2023/01/29 07:26:42;;;;;;;33.43;21.93;;;;;;;;;;5048469;28;20045;-60
2023/01/29 07:29:08;;;;;;;30.60;21.50;;;;;;;;;;5048166;28;20048;-60
2023/01/29 07:31:34;;;;;;;30.10;22.23;;;;;;;;;;5062723;28;20048;-61
2023/01/29 07:34:00;;;;;;;32.03;22.30;;;;;;;;;;5067102;28;20075;-61
2023/01/29 07:36:27;;;;;;;30.50;21.87;;;;;;;;;;5048831;28;20650;-61
2023/01/29 07:38:53;;;;;;;32.07;20.53;;;;;;;;;;5066932;28;20509;-60
2023/01/29 07:41:19;;;;;;;32.97;22.60;;;;;;;;;;5069643;28;20048;-60
2023/01/29 07:43:45;;;;;;;34.00;23.67;;;;;;;;;;5055234;28;20044;-61
2023/01/29 07:46:11;;;;;;;39.00;22.63;;;;;;;;;;5051938;28;20052;-61
2023/01/29 07:48:37;;;;;;;34.17;21.67;;;;;;;;;;5060825;28;20057;-61
2023/01/29 07:51:03;;;;;;;31.03;21.90;;;;;;;;;;5053506;28;20522;-61
2023/01/29 07:53:29;;;;;;;38.30;22.27;;;;;;;;;;5053142;28;20045;-61
2023/01/29 07:55:55;;;;;;;36.93;22.80;;;;;;;;;;5056762;28;20056;-60
2023/01/29 07:58:21;;;;;;;30.73;21.67;;;;;;;;;;5057591;28;20045;-60
2023/01/29 08:00:48;;;;;;;33.53;22.03;;;;;;;;;;5057161;28;20051;-60
2023/01/29 08:03:15;;;;;;;36.20;23.17;;;;;;;;;;5055378;28;20079;-60
2023/01/29 08:05:41;;;;;;;33.00;22.40;;;;;;;;;;5057998;28;20041;-61
2023/01/29 08:08:07;;;;;;;37.27;22.93;;;;;;;;;;5055975;28;20048;-61
2023/01/29 08:10:34;;;;;;;30.67;21.67;;;;;;;;;;5059198;28;20075;-61
2023/01/29 08:13:01;;;;;;;36.10;23.60;;;;;;;;;;5054317;28;20063;-61
2023/01/29 08:15:28;;;;;;;33.23;22.40;;;;;;;;;;5057056;28;20055;-61
2023/01/29 08:17:54;;;;;;;33.50;21.93;;;;;;;;;;5056514;28;20037;-60
2023/01/29 08:20:21;;;;;;;34.23;22.47;;;;;;;;;;5057988;28;20037;-61
2023/01/29 08:22:47;;;;;;;36.27;21.00;;;;;;;;;;5057952;28;20037;-60
2023/01/29 08:25:13;;;;;;;33.40;21.30;;;;;;;;;;5056598;28;20041;-61
2023/01/29 08:27:39;;;;;;;33.93;22.23;;;;;;;;;;5058255;28;20072;-61
2023/01/29 08:30:06;;;;;;;30.83;20.47;;;;;;;;;;5056507;28;20104;-61
2023/01/29 08:32:32;;;;;;;33.00;21.43;;;;;;;;;;5061664;28;20128;-61
2023/01/29 08:34:58;;;;;;;32.37;21.50;;;;;;;;;;5053812;28;20048;-61
2023/01/29 08:37:24;;;;;;;34.80;19.80;;;;;;;;;;5046750;28;20123;-61
2023/01/29 08:39:50;;;;;;;32.80;20.93;;;;;;;;;;5049778;28;20063;-61
2023/01/29 08:42:16;;;;;;;32.47;21.13;;;;;;;;;;5051171;28;20495;-61
2023/01/29 08:44:42;;;;;;;33.90;21.60;;;;;;;;;;5051843;28;20522;-61
2023/01/29 08:47:08;;;;;;;31.30;20.60;;;;;;;;;;5068045;28;20422;-61
2023/01/29 08:49:34;;;;;;;34.27;21.33;;;;;;;;;;5070399;28;20060;-61
2023/01/29 08:52:00;;;;;;;30.40;20.87;;;;;;;;;;5069731;28;20064;-61
2023/01/29 08:54:26;;;;;;;34.23;21.33;;;;;;;;;;5069297;28;20101;-61
2023/01/29 08:56:52;;;;;;;36.23;22.50;;;;;;;;;;5065132;28;20049;-62
2023/01/29 08:59:19;;;;;;;29.97;20.17;;;;;;;;;;5053374;28;20578;-61
2023/01/29 09:01:45;;;;;;;33.27;22.40;;;;;;;;;;5062199;28;20629;-61
2023/01/29 09:04:11;;;;;;;30.63;20.70;;;;;;;;;;5057439;28;20471;-60
2023/01/29 09:06:37;;;;;;;32.07;22.03;;;;;;;;;;5071192;28;20101;-61
2023/01/29 09:09:03;;;;;;;38.20;22.40;;;;;;;;;;5071042;28;20083;-61
2023/01/29 09:11:29;;;;;;;29.83;20.13;;;;;;;;;;5070964;28;20123;-61
2023/01/29 09:13:55;;;;;;;27.80;20.30;;;;;;;;;;5069479;28;20048;-61
2023/01/29 09:16:21;;;;;;;32.23;21.83;;;;;;;;;;5070883;28;20067;-61
2023/01/29 09:18:47;;;;;;;30.47;20.83;;;;;;;;;;5070653;28;20048;-61
2023/01/29 09:21:13;;;;;;;33.50;21.23;;;;;;;;;;5071060;28;20067;-62
2023/01/29 09:23:39;;;;;;;32.17;22.63;;;;;;;;;;5071093;28;20094;-60
2023/01/29 09:26:07;;;;;;;29.73;21.13;;;;;;;;;;5069965;28;20499;-60
2023/01/29 09:28:33;;;;;;;34.50;23.43;;;;;;;;;;5070552;28;20052;-60
2023/01/29 09:31:03;;;;;;;29.77;20.23;;;;;;;;;;5070331;28;20052;-60
2023/01/29 09:33:29;;;;;;;30.87;21.93;;;;;;;;;;5070099;28;20529;-60
2023/01/29 09:35:56;;;;;;;29.50;19.30;;;;;;;;;;5070014;28;20454;-61
2023/01/29 09:38:22;;;;;;;28.70;19.87;;;;;;;;;;5070374;28;20080;-60
2023/01/29 09:41:03;;;;;;;31.60;21.60;;;;;;;;;;5070492;28;20044;-61
2023/01/29 09:43:44;;;;;;;28.80;20.63;;;;;;;;;;5069299;28;20663;-61
2023/01/29 09:46:22;;;;;;;30.50;20.20;;;;;;;;;;5069919;28;20461;-60
2023/01/29 09:48:51;;;;;;;27.23;20.87;;;;;;;;;;5070262;28;20130;-60
2023/01/29 09:51:40;;;;;;;31.00;21.20;;;;;;;;;;5069045;28;20507;-60
2023/01/29 09:54:06;;;;;;;29.97;22.47;;;;;;;;;;5070093;28;20451;-60
2023/01/29 09:56:32;;;;;;;28.37;20.33;;;;;;;;;;5069705;28;20063;-60
2023/01/29 09:58:58;;;;;;;32.57;21.60;;;;;;;;;;5070017;28;20052;-60
2023/01/29 10:01:40;;;;;;;28.10;20.50;;;;;;;;;;5069755;28;20102;-61
2023/01/29 10:04:24;;;;;;;30.03;19.83;;;;;;;;;;5069464;28;20519;-60
2023/01/29 10:07:02;;;;;;;29.37;20.27;;;;;;;;;;5069777;28;20048;-61
2023/01/29 10:10:07;;;;;;;32.40;21.83;;;;;;;;;;5069513;28;20044;-61
2023/01/29 10:12:53;;;;;;;31.30;22.90;;;;;;;;;;5027350;28;20053;-61
2023/01/29 10:15:34;;;;;;;31.50;21.40;;;;;;;;;;5027535;28;20462;-60
2023/01/29 10:18:19;;;;;;;26.27;19.37;;;;;;;;;;5057362;28;20049;-60
2023/01/29 10:20:57;;;;;;;30.17;20.20;;;;;;;;;;5069660;28;20044;-61
2023/01/29 10:23:29;;;;;;;28.17;20.47;;;;;;;;;;5069284;28;20135;-62
2023/01/29 10:25:55;;;;;;;30.90;21.17;;;;;;;;;;5069767;28;20044;-61
2023/01/29 10:28:24;;;;;;;30.30;20.20;;;;;;;;;;5069178;28;20517;-61
2023/01/29 10:30:53;;;;;;;32.07;21.30;;;;;;;;;;5069305;28;20060;-61
2023/01/29 10:33:32;;;;;;;30.23;21.97;;;;;;;;;;5068823;28;20045;-61
2023/01/29 10:36:02;;;;;;;31.80;21.53;;;;;;;;;;5069352;28;20139;-61
2023/01/29 10:38:34;;;;;;;29.67;21.20;;;;;;;;;;5069271;28;20414;-59
2023/01/29 10:41:10;;;;;;;31.47;20.70;;;;;;;;;;5069126;28;20048;-61
2023/01/29 10:43:44;;;;;;;29.03;21.23;;;;;;;;;;5069027;28;20063;-61
2023/01/29 10:46:26;;;;;;;29.43;20.90;;;;;;;;;;5068881;28;20044;-61
2023/01/29 10:48:52;;;;;;;31.37;21.23;;;;;;;;;;5068727;28;20067;-61
2023/01/29 10:51:18;;;;;;;32.97;20.70;;;;;;;;;;5069328;28;20102;-61
2023/01/29 10:53:53;;;;;;;29.10;20.37;;;;;;;;;;5069067;28;20044;-60
2023/01/29 10:56:37;;;;;;;34.23;22.80;;;;;;;;;;5069029;28;20045;-61
2023/01/29 10:59:04;;;;;;;;;;;;;;;;;;5069030;28;20102;-61
2023/01/29 11:01:30;;;;;;;26.67;19.17;;;;;;;;;;5069018;28;19924;-61
2023/01/29 11:03:59;;;;;;;27.10;19.77;;;;;;;;;;5068665;28;20441;-61
2023/01/29 11:06:32;;;;;;;27.90;20.93;;;;;;;;;;5068778;28;20661;-61
2023/01/29 11:09:17;;;;;;;38.60;20.67;;;;;;;;;;5069145;28;20040;-61
2023/01/29 11:11:52;;;;;;;33.33;21.73;;;;;;;;;;5069115;28;20037;-61
2023/01/29 11:14:21;;;;;;;32.90;21.47;;;;;;;;;;5068501;28;20487;-61
2023/01/29 11:16:47;;;;;;;26.10;19.20;;;;;;;;;;5068982;28;20036;-61
2023/01/29 11:19:14;;;;;;;28.40;21.13;;;;;;;;;;5068809;28;20053;-61
2023/01/29 11:22:00;;;;;;;31.97;19.57;;;;;;;;;;5068496;28;20063;-61
2023/01/29 11:24:26;;;;;;;29.60;19.60;;;;;;;;;;5068553;28;20453;-61
2023/01/29 11:26:53;;;;;;;27.70;21.33;;;;;;;;;;5068512;28;20036;-60
2023/01/29 11:29:32;;;;;;;32.00;20.57;;;;;;;;;;5068579;28;20048;-61
2023/01/29 11:31:58;;;;;;;30.93;20.67;;;;;;;;;;5068337;28;20819;-61
2023/01/29 11:34:29;;;;;;;32.93;20.10;;;;;;;;;;5068666;28;20044;-61
2023/01/29 11:37:14;;;;;;;37.13;19.73;;;;;;;;;;5068664;28;20036;-60
2023/01/29 11:39:44;;;;;;;31.73;20.63;;;;;;;;;;5067936;28;20601;-61
2023/01/29 11:42:18;;;;;;;31.83;21.47;;;;;;;;;;5067173;28;20529;-61
2023/01/29 11:44:44;;;;;;;41.97;22.50;;;;;;;;;;5068621;28;20446;-60
2023/01/29 11:47:15;;;;;;;35.17;22.17;;;;;;;;;;5068398;28;20101;-60
2023/01/29 11:49:48;;;;;;;29.27;20.53;;;;;;;;;;5067784;28;20056;-60
2023/01/29 11:52:16;;;;;;;33.25;23.90;;;;;;;;;;5068182;28;20060;-60
2023/01/29 11:54:45;;;;;;;30.57;22.20;;;;;;;;;;5068590;28;20147;-60
2023/01/29 11:57:30;;;;;;;29.17;23.87;;;;;;;;;;5068279;28;20464;-62
2023/01/29 11:59:57;;;;;;;34.50;22.53;;;;;;;;;;5066901;28;20127;-61
2023/01/29 12:02:30;;;;;;;32.50;20.47;;;;;;;;;;5068292;28;20049;-61
2023/01/29 12:04:58;;;;;;;33.73;21.67;;;;;;;;;;5055287;28;20507;-61
2023/01/29 12:07:24;;;;;;;30.17;21.97;;;;;;;;;;5048277;28;20080;-61
2023/01/29 12:09:55;;;;;;;30.80;21.73;;;;;;;;;;5047223;28;20068;-61
2023/01/29 12:12:29;;;;;;;30.90;22.77;;;;;;;;;;5048200;28;20045;-61
2023/01/29 12:15:03;;;;;;;28.47;20.93;;;;;;;;;;5049950;28;20594;-61
2023/01/29 12:17:30;;;;;;;33.83;22.63;;;;;;;;;;5050605;28;20480;-61
2023/01/29 12:20:04;;;;;;;30.50;21.20;;;;;;;;;;5051836;28;20519;-62
2023/01/29 12:22:39;;;;;;;29.07;18.93;;;;;;;;;;5052111;28;20067;-62
2023/01/29 12:25:25;;;;;;;29.97;22.47;;;;;;;;;;5051595;28;20148;-59
2023/01/29 12:28:18;;;;;;;30.63;21.33;;;;;;;;;;5052025;28;20423;-61
2023/01/29 12:30:51;;;;;;;36.20;21.87;;;;;;;;;;5027584;28;20495;-60
2023/01/29 12:33:38;;;;;;;30.95;21.42;;;;;;;;;;5051276;28;20051;-61
2023/01/29 12:36:12;;;;;;;34.90;21.33;;;;;;;;;;5051319;28;20974;-61
2023/01/29 12:38:39;;;;;;;32.27;21.17;;;;;;;;;;5051464;28;20077;-61
2023/01/29 12:41:09;;;;;;;31.67;21.47;;;;;;;;;;5051326;28;20049;-60
2023/01/29 12:43:38;;;;;;;31.33;20.10;;;;;;;;;;5050932;28;20053;-61
2023/01/29 12:46:06;;;;;;;34.33;23.00;;;;;;;;;;5050009;28;20064;-61
2023/01/29 12:48:33;;;;;;;29.87;20.30;;;;;;;;;;5051363;28;20048;-61
2023/01/29 12:51:06;;;;;;;32.10;21.27;;;;;;;;;;5051737;28;20041;-61
2023/01/29 12:53:34;;;;;;;29.67;19.80;;;;;;;;;;5051533;28;20076;-61
2023/01/29 12:56:09;;;;;;;33.40;23.07;;;;;;;;;;5051690;28;20289;-60
2023/01/29 12:58:37;;;;;;;33.00;22.50;;;;;;;;;;5051114;28;20037;-60
2023/01/29 13:01:08;;;;;;;31.13;20.50;;;;;;;;;;5050022;28;20122;-60
2023/01/29 13:03:49;;;;;;;32.00;21.87;;;;;;;;;;5052147;28;20139;-60
2023/01/29 13:06:17;;;;;;;32.63;22.63;;;;;;;;;;5070927;28;20109;-60
2023/01/29 13:08:52;;;;;;;33.13;23.20;;;;;;;;;;5071225;28;20044;-60
2023/01/29 13:11:27;;;;;;;34.60;22.83;;;;;;;;;;5069690;28;20051;-60
2023/01/29 13:13:59;;;;;;;31.80;21.20;;;;;;;;;;5069574;28;20460;-61
2023/01/29 13:16:26;;;;;;;35.60;22.20;;;;;;;;;;5071268;28;20040;-60
2023/01/29 13:18:55;;;;;;;38.77;23.17;;;;;;;;;;5070785;28;20040;-60
2023/01/29 13:21:42;;;;;;;37.90;25.80;;;;;;;;;;5070892;28;20059;-60
2023/01/29 13:24:13;;;;;;;34.57;21.87;;;;;;;;;;5070429;28;20059;-60
2023/01/29 13:26:40;;;;;;;35.57;23.13;;;;;;;;;;5069484;28;20036;-61
2023/01/29 13:29:06;;;;;;;37.30;24.10;;;;;;;;;;5070663;28;20105;-61
2023/01/29 13:31:32;;;;;;;36.77;23.60;;;;;;;;;;5070594;28;20044;-61
2023/01/29 13:34:01;;;;;;;36.43;25.27;;;;;;;;;;5070469;28;20140;-61
2023/01/29 13:36:29;;;;;;;37.33;24.60;;;;;;;;;;5070419;28;20048;-61
2023/01/29 13:39:00;;;;;;;37.63;25.27;;;;;;;;;;5070186;28;20503;-60
2023/01/29 13:41:38;;;;;;;37.13;26.20;;;;;;;;;;5070414;28;20170;-61
2023/01/29 13:44:17;;;;;;;39.73;26.03;;;;;;;;;;5070439;28;20572;-60
2023/01/29 13:46:47;;;;;;;35.80;24.90;;;;;;;;;;5070884;28;20036;-61
2023/01/29 13:49:34;;;;;;;39.63;25.47;;;;;;;;;;5069474;28;20151;-61
2023/01/29 13:52:13;;;;;;;37.73;23.93;;;;;;;;;;5070133;28;20499;-60
2023/01/29 13:54:40;;;;;;;34.07;21.73;;;;;;;;;;5070028;28;20680;-60
2023/01/29 13:57:26;;;;;;;37.07;24.63;;;;;;;;;;5052300;28;20095;-60
2023/01/29 13:59:54;;;;;;;38.40;23.33;;;;;;;;;;5070418;28;20473;-61
2023/01/29 14:02:24;;;;;;;39.17;24.50;;;;;;;;;;5069581;28;20478;-61
2023/01/29 14:04:50;;;;;;;38.90;25.67;;;;;;;;;;5058814;28;20075;-60
2023/01/29 14:07:35;;;;;;;34.13;23.43;;;;;;;;;;5050036;28;20080;-61
2023/01/29 14:10:02;;;;;;;37.23;25.73;;;;;;;;;;5050398;28;20130;-61
2023/01/29 14:12:32;;;;;;;37.67;25.53;;;;;;;;;;5049806;28;20465;-61
2023/01/29 14:15:15;;;;;;;38.83;25.70;;;;;;;;;;5049917;28;20485;-61
2023/01/29 14:17:54;;;;;;;37.10;27.93;;;;;;;;;;5049668;28;20442;-61
2023/01/29 14:20:22;;;;;;;38.20;24.43;;;;;;;;;;5049712;28;20056;-61
2023/01/29 14:22:56;;;;;;;40.70;25.60;;;;;;;;;;5049663;28;20041;-61
2023/01/29 14:25:22;;;;;;;;;;;;;;;;;;5049659;28;20215;-61
2023/01/29 14:27:48;;;;;;;44.57;27.67;;;;;;;;;;5049378;28;20015;-61
2023/01/29 14:30:17;;;;;;;39.10;26.57;;;;;;;;;;5049661;28;20049;-61
2023/01/29 14:32:47;;;;;;;41.67;27.47;;;;;;;;;;5049454;28;20049;-61
2023/01/29 14:35:21;;;;;;;47.93;28.87;;;;;;;;;;5049384;28;20040;-61
2023/01/29 14:37:50;;;;;;;48.07;31.97;;;;;;;;;;5048702;28;20492;-61
2023/01/29 14:40:18;;;;;;;53.17;32.50;;;;;;;;;;5048978;28;20041;-61
2023/01/29 14:42:44;;;;;;;45.80;32.80;;;;;;;;;;5048931;28;20048;-61
2023/01/29 14:45:30;;;;;;;57.43;36.33;;;;;;;;;;5049120;28;20045;-60
2023/01/29 14:47:56;;;;;;;64.93;35.97;;;;;;;;;;5048297;28;20064;-61
2023/01/29 14:50:31;;;;;;;63.90;38.43;;;;;;;;;;5049269;28;20091;-61
2023/01/29 14:53:15;;;;;;;62.70;36.37;;;;;;;;;;5047551;28;20057;-61
2023/01/29 14:55:50;;;;;;;69.53;37.45;;;;;;;;;;5049045;28;20102;-61
2023/01/29 14:58:24;;;;;;;68.03;37.20;;;;;;;;;;5050242;28;20049;-61
2023/01/29 15:00:53;;;;;;;66.17;39.67;;;;;;;;;;5059473;28;20091;-61
2023/01/29 15:03:39;;;;;;;62.57;38.83;;;;;;;;;;5048486;28;20121;-60
2023/01/29 15:06:07;;;;;;;66.57;39.63;;;;;;;;;;5047475;28;20132;-60
2023/01/29 15:08:41;;;;;;;58.77;36.10;;;;;;;;;;5045655;28;20088;-61